Time;durP1;ratioP1;P1;durP2;ratioP2;P2;SDS_P1;SDS_P2;PMS_P1;PMS_P2;Temp;Humidity;BMP_temperature;BMP_pressure;BME280_temperature;BME280_humidity;BME280_pressure;Samples;Min_cycle;Max_cycle;Signal;HPM_P1;HPM_P2
2024/01/10 00:01:17;;;;;;;4.68;2.20;;;-1.30;99.70;;;;;;5033987;28;20029;-84
2024/01/10 00:03:43;;;;;;;5.13;2.53;;;-1.40;99.90;;;;;;5034224;28;20033;-83
2024/01/10 00:06:10;;;;;;;3.85;2.10;;;-1.30;99.90;;;;;;5023575;28;20310;-84
2024/01/10 00:08:37;;;;;;;2.58;2.38;;;-1.40;99.90;;;;;;5026981;28;20104;-82
2024/01/10 00:11:03;;;;;;;3.72;2.35;;;-1.40;99.90;;;;;;5029675;28;20033;-83
2024/01/10 00:13:30;;;;;;;3.67;2.47;;;-1.40;99.90;;;;;;5030223;28;20041;-83
2024/01/10 00:15:58;;;;;;;8.70;2.17;;;-1.40;99.90;;;;;;5030104;28;20025;-84
2024/01/10 00:18:24;;;;;;;3.47;2.08;;;-1.40;99.90;;;;;;5030384;28;20033;-83
2024/01/10 00:20:53;;;;;;;3.40;2.15;;;-1.40;99.90;;;;;;5030753;28;20021;-84
2024/01/10 00:23:19;;;;;;;3.47;2.17;;;-1.50;99.90;;;;;;5027034;28;20038;-83
2024/01/10 00:25:45;;;;;;;4.05;2.63;;;-1.50;99.90;;;;;;5021996;28;20036;-83
2024/01/10 00:28:11;;;;;;;3.03;2.00;;;-1.50;99.90;;;;;;5029635;28;20033;-83
2024/01/10 00:30:37;;;;;;;4.20;2.20;;;-1.50;99.90;;;;;;5029686;28;20041;-84
2024/01/10 00:33:02;;;;;;;7.63;3.08;;;-0.40;99.90;;;;;;5029092;28;20051;-84
2024/01/10 00:35:28;;;;;;;5.10;2.25;;;-0.80;99.90;;;;;;5024971;28;20033;-84
2024/01/10 00:37:54;;;;;;;5.28;1.92;;;-1.50;99.90;;;;;;5029892;28;20061;-82
2024/01/10 00:40:19;;;;;;;2.45;1.80;;;-1.50;99.90;;;;;;5030167;28;20025;-83
2024/01/10 00:42:45;;;;;;;2.67;1.95;;;-1.50;99.90;;;;;;5028915;28;20156;-84
2024/01/10 00:45:10;;;;;;;3.30;1.90;;;-1.60;99.90;;;;;;5030188;28;20393;-84
2024/01/10 00:47:36;;;;;;;3.00;2.08;;;-1.60;99.90;;;;;;5024580;28;20029;-84
2024/01/10 00:50:02;;;;;;;4.95;2.00;;;-1.50;99.90;;;;;;5026268;28;20052;-84
2024/01/10 00:52:27;;;;;;;4.22;2.40;;;-1.50;99.90;;;;;;5029919;28;20048;-82
2024/01/10 00:54:53;;;;;;;2.88;2.15;;;-1.60;99.90;;;;;;5029556;28;20029;-82
2024/01/10 00:57:18;;;;;;;3.45;2.20;;;-1.50;99.90;;;;;;5024212;28;20514;-83
2024/01/10 00:59:44;;;;;;;5.20;2.50;;;-1.50;99.90;;;;;;5028347;28;20385;-84
2024/01/10 01:02:09;;;;;;;3.38;2.35;;;-1.50;99.90;;;;;;5029587;28;20029;-82
2024/01/10 01:04:35;;;;;;;4.10;2.45;;;-1.50;99.90;;;;;;5025738;28;20045;-83
2024/01/10 01:07:00;;;;;;;4.47;2.33;;;-1.50;99.90;;;;;;5022885;28;20045;-84
2024/01/10 01:09:26;;;;;;;3.83;2.00;;;-1.40;99.90;;;;;;5015473;28;20045;-84
2024/01/10 01:11:51;;;;;;;6.65;2.60;;;-1.50;99.90;;;;;;5029956;28;20235;-84
2024/01/10 01:14:17;;;;;;;3.05;2.10;;;-1.50;99.90;;;;;;5029917;28;20065;-83
2024/01/10 01:16:43;;;;;;;6.05;2.65;;;-1.50;99.90;;;;;;5028929;28;20033;-83
2024/01/10 01:19:08;;;;;;;2.72;2.05;;;-1.50;99.90;;;;;;5027038;28;20033;-83
2024/01/10 01:21:34;;;;;;;4.88;2.42;;;-1.50;99.90;;;;;;5030256;28;20029;-84
2024/01/10 01:23:59;;;;;;;3.42;2.10;;;-1.50;99.90;;;;;;5028689;28;20040;-84
2024/01/10 01:26:25;;;;;;;4.72;2.38;;;-1.50;99.90;;;;;;5028880;28;20507;-83
2024/01/10 01:28:50;;;;;;;3.72;2.30;;;-1.50;99.90;;;;;;5028982;28;20461;-83
2024/01/10 01:31:16;;;;;;;4.47;2.17;;;-1.50;99.90;;;;;;5024970;28;20482;-83
2024/01/10 01:33:42;;;;;;;4.80;2.42;;;-1.50;99.90;;;;;;5028666;28;20384;-83
2024/01/10 01:36:07;;;;;;;4.18;2.53;;;-1.50;99.90;;;;;;5029969;28;20063;-83
2024/01/10 01:38:33;;;;;;;5.35;3.03;;;-1.60;99.90;;;;;;5028264;28;20021;-83
2024/01/10 01:40:58;;;;;;;4.50;2.45;;;-1.60;99.90;;;;;;5027763;28;20611;-82
2024/01/10 01:43:26;;;;;;;5.80;2.47;;;-1.60;99.90;;;;;;5024854;28;20029;-83
2024/01/10 01:45:53;;;;;;;3.83;2.53;;;-0.40;99.90;;;;;;5027583;28;20088;-83
2024/01/10 01:48:20;;;;;;;3.60;2.70;;;-1.60;99.90;;;;;;5024149;28;20035;-83
2024/01/10 01:50:48;;;;;;;4.03;2.40;;;-1.60;99.90;;;;;;5028372;28;20482;-81
2024/01/10 01:53:14;;;;;;;2.97;2.38;;;-0.70;99.90;;;;;;5030117;28;20091;-83
2024/01/10 01:55:43;;;;;;;5.88;2.80;;;-1.50;99.90;;;;;;5030046;28;20422;-83
2024/01/10 01:58:09;;;;;;;5.10;2.50;;;-1.50;99.90;;;;;;5026206;28;20123;-83
2024/01/10 02:00:35;;;;;;;5.45;2.78;;;-1.50;99.90;;;;;;5027767;28;20464;-82
2024/01/10 02:03:01;;;;;;;3.35;2.30;;;-1.60;99.90;;;;;;5025751;28;20060;-83
2024/01/10 02:05:27;;;;;;;5.45;3.05;;;-1.50;99.90;;;;;;5026827;28;20065;-82
2024/01/10 02:07:53;;;;;;;4.05;2.10;;;-1.60;99.90;;;;;;5029284;28;20033;-83
2024/01/10 02:10:20;;;;;;;2.88;2.10;;;-1.60;99.90;;;;;;5021546;28;20475;-83
2024/01/10 02:12:46;;;;;;;5.22;2.38;;;-1.60;99.90;;;;;;5027719;28;20042;-83
2024/01/10 02:15:12;;;;;;;3.78;2.45;;;-1.60;99.90;;;;;;5028510;28;20024;-82
2024/01/10 02:17:38;;;;;;;5.22;2.65;;;-1.60;99.90;;;;;;5029187;28;20484;-83
2024/01/10 02:20:20;;;;;;;2.90;2.20;;;-1.60;99.90;;;;;;5029392;28;20120;-81
2024/01/10 02:22:47;;;;;;;2.72;2.28;;;-1.60;99.90;;;;;;5026650;28;20041;-81
2024/01/10 02:25:13;;;;;;;3.03;2.35;;;-1.70;99.90;;;;;;5032896;28;20030;-83
2024/01/10 02:27:42;;;;;;;4.25;2.50;;;-1.70;99.90;;;;;;5028952;28;20400;-84
2024/01/10 02:30:09;;;;;;;4.53;2.72;;;-1.70;99.90;;;;;;5029033;28;20030;-84
2024/01/10 02:32:36;;;;;;;3.08;2.30;;;-1.70;99.90;;;;;;5022081;28;20088;-84
2024/01/10 02:35:02;;;;;;;3.28;2.60;;;-1.70;99.90;;;;;;5028125;28;20422;-84
2024/01/10 02:37:27;;;;;;;4.15;2.83;;;-1.40;99.90;;;;;;5027758;28;20029;-84
2024/01/10 02:39:53;;;;;;;3.78;2.47;;;-1.70;99.90;;;;;;5028018;28;20056;-83
2024/01/10 02:42:18;;;;;;;3.53;2.45;;;-1.70;99.90;;;;;;5027449;28;20025;-84
2024/01/10 02:44:44;;;;;;;5.75;2.60;;;-1.70;99.90;;;;;;5024676;28;20030;-84
2024/01/10 02:47:11;;;;;;;5.93;2.85;;;-1.70;99.90;;;;;;5028982;28;20030;-85
2024/01/10 02:49:37;;;;;;;3.50;2.50;;;-1.70;99.90;;;;;;5028533;28;20052;-85
2024/01/10 02:52:03;;;;;;;4.88;2.63;;;-1.70;99.90;;;;;;5029088;28;20128;-85
2024/01/10 02:54:28;;;;;;;5.53;2.47;;;-1.70;99.90;;;;;;5028253;28;20393;-84
2024/01/10 02:56:54;;;;;;;5.07;3.08;;;-1.80;99.90;;;;;;5024223;28;20049;-85
2024/01/10 02:59:20;;;;;;;3.13;2.15;;;-1.80;99.90;;;;;;5027052;28;20535;-83
2024/01/10 03:01:45;;;;;;;3.83;2.25;;;-1.80;99.90;;;;;;5027842;28;20061;-83
2024/01/10 03:04:11;;;;;;;5.10;2.58;;;-1.80;99.90;;;;;;5030058;28;20030;-84
2024/01/10 03:06:36;;;;;;;3.90;2.53;;;-1.80;99.90;;;;;;5028665;28;20030;-83
2024/01/10 03:09:02;;;;;;;4.35;2.22;;;-1.80;99.90;;;;;;5030445;28;20021;-84
2024/01/10 03:11:28;;;;;;;3.55;2.80;;;-1.80;99.90;;;;;;5025637;28;20030;-82
2024/01/10 03:14:07;;;;;;;5.43;3.00;;;-1.80;99.90;;;;;;5030258;28;20118;-83
2024/01/10 03:16:33;;;;;;;5.43;2.63;;;-1.80;99.90;;;;;;5031200;28;20029;-83
2024/01/10 03:18:58;;;;;;;5.70;2.70;;;-1.90;99.90;;;;;;5031020;28;20044;-83
2024/01/10 03:21:27;;;;;;;5.50;2.53;;;-1.90;99.90;;;;;;5032712;28;20025;-83
2024/01/10 03:23:57;;;;;;;4.80;2.97;;;-1.90;99.90;;;;;;5023396;28;20064;-84
2024/01/10 03:26:26;;;;;;;4.35;2.72;;;-2.10;99.90;;;;;;5032119;28;20030;-84
2024/01/10 03:28:52;;;;;;;4.10;2.35;;;-2.00;99.90;;;;;;5030398;28;20056;-84
2024/01/10 03:31:18;;;;;;;3.67;2.53;;;-2.00;99.90;;;;;;5031620;28;20034;-84
2024/01/10 03:33:44;;;;;;;3.63;2.80;;;-2.10;99.90;;;;;;5031110;28;20477;-83
2024/01/10 03:36:13;;;;;;;3.25;2.28;;;-2.10;99.90;;;;;;5025890;28;20029;-85
2024/01/10 03:38:38;;;;;;;4.63;3.35;;;-2.00;99.90;;;;;;5029868;28;20048;-84
2024/01/10 03:41:04;;;;;;;4.40;2.90;;;-2.10;99.90;;;;;;5032472;28;20033;-84
2024/01/10 03:43:30;;;;;;;4.68;2.58;;;-2.10;99.90;;;;;;5032796;28;20075;-85
2024/01/10 03:45:56;;;;;;;5.38;3.28;;;-2.00;99.90;;;;;;5029243;28;20393;-85
2024/01/10 03:48:22;;;;;;;5.35;3.20;;;-2.10;99.90;;;;;;5027229;28;20421;-83
2024/01/10 03:50:48;;;;;;;3.60;2.42;;;-2.00;99.90;;;;;;5030978;28;20413;-83
2024/01/10 03:53:13;;;;;;;4.38;3.00;;;-2.00;99.90;;;;;;5030824;28;20103;-83
2024/01/10 03:55:39;;;;;;;6.18;2.72;;;-2.00;99.90;;;;;;5030798;28;20022;-82
2024/01/10 03:58:05;;;;;;;4.55;2.95;;;-2.00;99.90;;;;;;5026864;28;20033;-82
2024/01/10 04:00:30;;;;;;;3.72;2.75;;;-2.00;99.90;;;;;;5027717;28;20021;-83
2024/01/10 04:02:56;;;;;;;4.65;3.20;;;-2.00;99.90;;;;;;5031018;28;20488;-83
2024/01/10 04:05:24;;;;;;;4.82;3.28;;;-2.00;99.90;;;;;;5030133;28;20397;-82
2024/01/10 04:07:50;;;;;;;3.70;2.83;;;-2.00;99.90;;;;;;5028298;28;20041;-82
2024/01/10 04:10:15;;;;;;;4.35;3.33;;;-2.00;99.90;;;;;;5030986;28;20096;-83
2024/01/10 04:12:41;;;;;;;4.07;2.78;;;-2.00;99.90;;;;;;5022836;28;20481;-82
2024/01/10 04:15:07;;;;;;;7.00;3.22;;;-2.10;99.90;;;;;;5031239;28;20026;-82
2024/01/10 04:17:32;;;;;;;5.95;3.33;;;-2.20;99.90;;;;;;5030150;28;20381;-82
2024/01/10 04:19:58;;;;;;;4.25;2.58;;;-2.30;99.90;;;;;;5029854;28;20553;-82
2024/01/10 04:22:24;;;;;;;3.45;2.42;;;-2.20;99.90;;;;;;5028495;28;20037;-83
2024/01/10 04:24:50;;;;;;;4.20;2.75;;;-2.20;99.90;;;;;;5026450;28;20031;-83
2024/01/10 04:27:17;;;;;;;5.68;3.45;;;-2.20;99.90;;;;;;5029745;28;20112;-82
2024/01/10 04:29:43;;;;;;;3.63;3.05;;;-2.20;99.90;;;;;;5030622;28;20029;-84
2024/01/10 04:32:09;;;;;;;7.85;3.35;;;-2.20;99.90;;;;;;5031141;28;20389;-85
2024/01/10 04:34:35;;;;;;;5.28;3.10;;;-2.10;99.90;;;;;;5029141;28;20036;-84
2024/01/10 04:37:00;;;;;;;10.13;3.60;;;-2.10;99.90;;;;;;5027817;28;20120;-83
2024/01/10 04:39:26;;;;;;;6.07;3.65;;;-2.10;99.90;;;;;;5031124;28;20026;-84
2024/01/10 04:41:51;;;;;;;8.13;3.15;;;-2.10;99.90;;;;;;5029638;28;20101;-84
2024/01/10 04:44:17;;;;;;;4.95;3.10;;;-2.20;99.90;;;;;;5029251;28;20044;-83
2024/01/10 04:46:43;;;;;;;6.85;3.63;;;-2.20;99.90;;;;;;5030025;28;20045;-83
2024/01/10 04:49:08;;;;;;;5.95;3.08;;;-2.20;99.90;;;;;;5030549;28;20570;-83
2024/01/10 04:51:34;;;;;;;5.60;3.50;;;-2.20;99.90;;;;;;5016158;28;20034;-83
2024/01/10 04:54:00;;;;;;;5.50;3.20;;;-2.20;99.90;;;;;;5029798;28;20341;-83
2024/01/10 04:56:26;;;;;;;5.05;3.22;;;-2.20;99.90;;;;;;5030105;28;20037;-84
2024/01/10 04:58:51;;;;;;;4.95;3.08;;;-2.30;99.90;;;;;;5030652;28;20048;-84
2024/01/10 05:01:17;;;;;;;6.05;3.50;;;-2.30;99.90;;;;;;5032326;28;20037;-83
2024/01/10 05:03:43;;;;;;;3.88;3.17;;;-2.20;99.90;;;;;;5019932;28;20462;-84
2024/01/10 05:06:09;;;;;;;4.90;3.42;;;-2.20;99.90;;;;;;5027416;28;20025;-84
2024/01/10 05:08:34;;;;;;;4.70;3.10;;;-2.30;99.90;;;;;;5027573;28;20040;-84
2024/01/10 05:11:00;;;;;;;7.15;3.30;;;-2.20;99.90;;;;;;5029698;28;20084;-84
2024/01/10 05:13:26;;;;;;;3.72;3.00;;;-2.20;99.90;;;;;;5026847;28;20469;-83
2024/01/10 05:15:51;;;;;;;5.15;3.47;;;-2.20;99.90;;;;;;5029795;28;20026;-84
2024/01/10 05:18:18;;;;;;;7.03;3.67;;;-2.20;99.90;;;;;;5028499;28;20057;-83
2024/01/10 05:20:44;;;;;;;5.45;3.38;;;-2.20;99.90;;;;;;5028340;28;20421;-84
2024/01/10 05:23:10;;;;;;;5.65;3.13;;;-2.30;99.90;;;;;;5029148;28;20068;-84
2024/01/10 05:25:36;;;;;;;5.18;3.45;;;-2.30;99.90;;;;;;5021185;28;20117;-84
2024/01/10 05:28:01;;;;;;;5.07;3.20;;;-2.30;99.90;;;;;;5030755;28;20465;-84
2024/01/10 05:30:27;;;;;;;3.63;2.90;;;-2.30;99.90;;;;;;5028797;28;20029;-84
2024/01/10 05:32:52;;;;;;;8.15;3.00;;;-2.30;99.90;;;;;;5028615;28;20924;-83
2024/01/10 05:35:18;;;;;;;4.85;3.30;;;-2.40;99.90;;;;;;5029067;28;20520;-84
2024/01/10 05:37:43;;;;;;;5.88;3.00;;;-2.40;99.90;;;;;;5022418;28;20021;-84
2024/01/10 05:40:09;;;;;;;5.00;3.53;;;-2.40;99.90;;;;;;5030249;28;20087;-84
2024/01/10 05:42:35;;;;;;;6.38;3.25;;;-2.40;99.90;;;;;;5028633;28;20056;-84
2024/01/10 05:45:02;;;;;;;5.38;2.97;;;-2.40;99.90;;;;;;5029512;28;20470;-84
2024/01/10 05:47:27;;;;;;;4.75;3.28;;;-2.50;99.90;;;;;;5026127;28;20026;-84
2024/01/10 05:49:53;;;;;;;8.05;3.28;;;-2.50;99.90;;;;;;5029900;28;20059;-83
2024/01/10 05:52:20;;;;;;;7.13;4.22;;;-2.50;99.90;;;;;;5039720;28;20041;-85
2024/01/10 05:54:48;;;;;;;9.93;4.97;;;-2.40;99.90;;;;;;5038776;28;20079;-83
2024/01/10 05:57:14;;;;;;;13.15;5.18;;;-2.40;99.90;;;;;;5024317;28;20038;-82
2024/01/10 05:59:39;;;;;;;6.75;4.65;;;-2.40;99.90;;;;;;5026998;28;20477;-83
2024/01/10 06:02:05;;;;;;;8.27;3.88;;;-2.40;99.90;;;;;;5029191;28;20057;-82
2024/01/10 06:04:31;;;;;;;5.97;2.95;;;-2.30;99.90;;;;;;5025979;28;20026;-83
2024/01/10 06:07:00;;;;;;;4.00;2.85;;;-2.40;99.90;;;;;;5020013;28;20296;-83
2024/01/10 06:09:26;;;;;;;6.10;3.58;;;-2.40;99.90;;;;;;5017929;28;20482;-83
2024/01/10 06:11:51;;;;;;;5.95;3.53;;;-2.40;99.90;;;;;;5025380;28;20044;-82
2024/01/10 06:14:17;;;;;;;5.70;2.90;;;-2.30;99.90;;;;;;5015748;28;20432;-82
2024/01/10 06:16:44;;;;;;;4.85;3.25;;;-2.30;99.90;;;;;;5017380;28;20377;-82
2024/01/10 06:19:13;;;;;;;7.63;3.53;;;-2.30;99.90;;;;;;5025971;28;20048;-83
2024/01/10 06:21:39;;;;;;;4.30;3.15;;;-2.40;99.90;;;;;;5012404;28;20022;-84
2024/01/10 06:24:05;;;;;;;3.95;2.70;;;-2.30;99.90;;;;;;5021703;28;20384;-84
2024/01/10 06:26:31;;;;;;;8.70;3.63;;;-2.40;99.90;;;;;;5029911;28;20017;-85
2024/01/10 06:28:57;;;;;;;6.68;3.15;;;-2.30;99.90;;;;;;5028660;28;20087;-83
2024/01/10 06:31:23;;;;;;;5.03;2.95;;;-2.40;99.90;;;;;;5017658;28;20478;-83
2024/01/10 06:33:49;;;;;;;5.75;3.22;;;-2.40;99.90;;;;;;5014122;28;20029;-82
2024/01/10 06:36:14;;;;;;;5.68;3.60;;;-2.40;99.90;;;;;;5019951;28;20044;-83
2024/01/10 06:38:40;;;;;;;6.07;3.42;;;-2.30;99.90;;;;;;5021718;28;20026;-83
2024/01/10 06:41:09;;;;;;;5.35;3.83;;;-2.40;99.90;;;;;;5033070;28;20053;-84
2024/01/10 06:43:36;;;;;;;6.35;3.58;;;-2.40;99.90;;;;;;5025857;28;20030;-82
2024/01/10 06:46:03;;;;;;;7.03;4.57;;;-2.50;99.90;;;;;;5028172;28;20113;-83
2024/01/10 06:48:29;;;;;;;6.75;4.38;;;-2.50;99.90;;;;;;5027219;28;20079;-82
2024/01/10 06:50:55;;;;;;;7.07;3.38;;;-2.50;99.90;;;;;;5031980;28;20061;-83
2024/01/10 06:53:21;;;;;;;4.60;2.92;;;-2.60;99.90;;;;;;5031517;28;20477;-82
2024/01/10 06:55:46;;;;;;;5.97;3.47;;;-2.50;99.90;;;;;;5032168;28;20044;-83
2024/01/10 06:58:12;;;;;;;7.78;2.83;;;-2.50;99.90;;;;;;5033162;28;20542;-83
2024/01/10 07:00:38;;;;;;;6.47;3.53;;;-2.50;99.90;;;;;;5028396;28;20787;-83
2024/01/10 07:03:04;;;;;;;5.15;3.33;;;-2.50;99.90;;;;;;5031085;28;20485;-82
2024/01/10 07:05:31;;;;;;;6.53;3.53;;;-2.40;99.90;;;;;;5030858;28;20370;-82
2024/01/10 07:07:57;;;;;;;5.63;3.17;;;-2.40;99.90;;;;;;5031475;28;20021;-80
2024/01/10 07:10:27;;;;;;;3.75;3.15;;;-2.40;99.90;;;;;;5032701;28;20071;-81
2024/01/10 07:12:55;;;;;;;6.55;3.58;;;-2.40;99.90;;;;;;5033247;28;20045;-81
2024/01/10 07:15:21;;;;;;;4.63;3.42;;;-2.40;99.90;;;;;;5030084;28;20021;-81
2024/01/10 07:17:48;;;;;;;4.55;3.22;;;-2.40;99.90;;;;;;5031614;28;20033;-81
2024/01/10 07:20:14;;;;;;;5.13;3.53;;;-2.40;99.90;;;;;;5031024;28;20040;-81
2024/01/10 07:22:43;;;;;;;7.07;3.50;;;-2.50;99.90;;;;;;5022997;28;20030;-81
2024/01/10 07:25:10;;;;;;;8.15;3.28;;;-2.50;99.90;;;;;;5033966;28;20017;-81
2024/01/10 07:27:39;;;;;;;4.63;2.97;;;-2.40;99.90;;;;;;5034127;28;20037;-83
2024/01/10 07:30:11;;;;;;;6.32;3.55;;;-2.50;99.90;;;;;;5033892;28;20026;-83
2024/01/10 07:32:37;;;;;;;6.97;4.35;;;-2.50;99.90;;;;;;5034278;28;20041;-80
2024/01/10 07:35:02;;;;;;;5.32;4.03;;;-2.40;99.90;;;;;;5021541;28;20022;-80
2024/01/10 07:37:28;;;;;;;6.30;3.72;;;-2.40;99.90;;;;;;5013143;28;20022;-81
2024/01/10 07:39:54;;;;;;;8.10;3.88;;;-2.40;99.90;;;;;;5013820;28;20109;-83
2024/01/10 07:42:19;;;;;;;4.78;3.42;;;-2.30;99.90;;;;;;5019756;28;20033;-82
2024/01/10 07:44:45;;;;;;;8.30;4.28;;;-2.30;99.90;;;;;;5029053;28;20041;-83
2024/01/10 07:47:10;;;;;;;6.53;4.10;;;-2.10;99.90;;;;;;5026838;28;20048;-82
2024/01/10 07:49:37;;;;;;;3.92;3.40;;;-2.20;99.90;;;;;;5022957;28;20052;-83
2024/01/10 07:52:04;;;;;;;7.55;3.75;;;-2.30;99.90;;;;;;5018224;28;20042;-83
2024/01/10 07:54:31;;;;;;;5.25;3.70;;;-2.30;99.90;;;;;;5032891;28;20033;-84
2024/01/10 07:56:57;;;;;;;4.55;3.45;;;-2.30;99.90;;;;;;5031561;28;20072;-82
2024/01/10 07:59:24;;;;;;;8.18;3.88;;;-2.30;99.90;;;;;;5024344;28;20021;-83
2024/01/10 08:01:58;;;;;;;5.53;3.85;;;-2.30;99.90;;;;;;5016215;28;20033;-84
2024/01/10 08:04:25;;;;;;;6.70;3.65;;;-2.30;99.90;;;;;;5019987;28;20575;-85
2024/01/10 08:06:51;;;;;;;6.75;4.32;;;-2.30;99.90;;;;;;5014809;28;20037;-84
2024/01/10 08:09:18;;;;;;;5.05;3.75;;;-2.30;99.90;;;;;;5022286;28;20041;-83
2024/01/10 08:11:45;;;;;;;4.68;3.13;;;-2.40;99.90;;;;;;5018569;28;20026;-83
2024/01/10 08:14:11;;;;;;;6.15;3.65;;;-2.40;99.90;;;;;;5024761;28;20036;-85
2024/01/10 08:16:36;;;;;;;9.38;4.15;;;-2.40;99.90;;;;;;5031938;28;20071;-84
2024/01/10 08:19:02;;;;;;;5.30;3.50;;;-2.30;99.90;;;;;;5032453;28;20029;-84
2024/01/10 08:21:27;;;;;;;6.35;3.97;;;-2.30;99.90;;;;;;5034897;28;20124;-83
2024/01/10 08:23:53;;;;;;;5.80;3.58;;;-2.40;99.90;;;;;;5034215;28;20026;-84
2024/01/10 08:26:18;;;;;;;5.57;4.22;;;-2.40;99.90;;;;;;5026808;28;20022;-83
2024/01/10 08:28:44;;;;;;;5.95;4.00;;;-2.30;99.90;;;;;;5031445;28;20088;-82
2024/01/10 08:31:10;;;;;;;8.33;4.47;;;-2.30;99.90;;;;;;5016241;28;20064;-82
2024/01/10 08:33:35;;;;;;;5.80;4.00;;;-2.30;99.90;;;;;;5013236;28;20038;-85
2024/01/10 08:36:01;;;;;;;5.55;4.03;;;-2.30;99.90;;;;;;5014247;28;20055;-85
2024/01/10 08:38:26;;;;;;;7.22;3.92;;;-2.30;99.90;;;;;;5014133;28;20021;-83
2024/01/10 08:40:52;;;;;;;7.45;4.20;;;-2.30;99.90;;;;;;5013374;28;20025;-85
2024/01/10 08:43:18;;;;;;;8.93;3.78;;;-2.20;99.90;;;;;;5015979;28;20045;-84
2024/01/10 08:45:44;;;;;;;8.02;4.50;;;-2.20;99.90;;;;;;5032928;28;20029;-84
2024/01/10 08:48:11;;;;;;;14.02;4.32;;;-2.20;99.90;;;;;;5031736;28;20030;-85
2024/01/10 08:50:37;;;;;;;6.03;4.40;;;-2.20;99.90;;;;;;5032654;28;20140;-86
2024/01/10 08:53:05;;;;;;;7.07;4.40;;;-2.30;99.90;;;;;;5032930;28;20124;-83
2024/01/10 08:55:34;;;;;;;6.32;4.25;;;-2.20;99.90;;;;;;5031443;28;20032;-82
2024/01/10 08:57:59;;;;;;;11.88;4.03;;;-2.20;99.90;;;;;;5033194;28;20436;-82
2024/01/10 09:00:25;;;;;;;5.78;4.10;;;-2.10;99.90;;;;;;5032150;28;20112;-85
2024/01/10 09:02:50;;;;;;;8.75;4.57;;;-2.10;99.90;;;;;;5031552;28;20053;-82
2024/01/10 09:05:16;;;;;;;9.25;5.13;;;-2.10;99.90;;;;;;5025374;28;20470;-82
2024/01/10 09:07:45;;;;;;;6.95;4.32;;;-2.00;99.90;;;;;;5012781;28;20036;-82
2024/01/10 09:10:10;;;;;;;8.48;4.85;;;-2.00;99.90;;;;;;5033992;28;20049;-83
2024/01/10 09:12:36;;;;;;;17.60;7.20;;;-2.00;99.90;;;;;;5027646;28;20056;-82
2024/01/10 09:15:02;;;;;;;5.72;4.35;;;-1.90;99.90;;;;;;5025837;28;20022;-81
2024/01/10 09:17:28;;;;;;;8.13;4.57;;;-1.90;99.90;;;;;;5032369;28;20405;-81
2024/01/10 09:19:54;;;;;;;8.65;4.63;;;-1.90;99.90;;;;;;5032172;28;20014;-82
2024/01/10 09:22:19;;;;;;;9.43;4.20;;;-1.90;99.90;;;;;;5031782;28;20029;-82
2024/01/10 09:24:45;;;;;;;8.55;4.18;;;-1.80;99.90;;;;;;5032313;28;20034;-82
2024/01/10 09:27:11;;;;;;;10.40;5.72;;;-1.80;99.90;;;;;;5032487;28;20037;-82
2024/01/10 09:29:36;;;;;;;9.35;4.97;;;-1.70;99.90;;;;;;5021508;28;20056;-83
2024/01/10 09:32:02;;;;;;;6.78;4.38;;;-1.70;99.90;;;;;;5018314;28;20047;-84
2024/01/10 09:34:29;;;;;;;11.10;5.05;;;-1.70;99.90;;;;;;5031410;28;20032;-82
2024/01/10 09:36:54;;;;;;;8.55;5.18;;;-1.70;99.90;;;;;;5031449;28;20032;-81
2024/01/10 09:39:20;;;;;;;9.43;5.05;;;-1.70;99.90;;;;;;5031995;28;20018;-83
2024/01/10 09:41:48;;;;;;;7.07;4.38;;;-1.60;99.90;;;;;;5031902;28;20018;-82
2024/01/10 09:44:17;;;;;;;7.13;5.03;;;-1.60;99.90;;;;;;5031644;28;20040;-83
2024/01/10 09:46:45;;;;;;;12.30;5.50;;;-1.50;99.90;;;;;;5031204;28;20021;-82
2024/01/10 09:49:11;;;;;;;9.63;5.63;;;-1.50;99.90;;;;;;5031333;28;20073;-83
2024/01/10 09:51:37;;;;;;;10.10;5.20;;;-1.50;99.90;;;;;;5029550;28;20738;-82
2024/01/10 09:54:04;;;;;;;9.98;5.57;;;-1.40;99.90;;;;;;5030639;28;20033;-83
2024/01/10 09:56:32;;;;;;;9.18;6.22;;;-1.40;99.90;;;;;;5015897;28;20022;-81
2024/01/10 09:59:00;;;;;;;13.85;9.02;;;-1.30;99.90;;;;;;5012092;28;20038;-83
2024/01/10 10:01:26;;;;;;;11.82;8.13;;;-1.30;99.90;;;;;;5010983;28;20018;-83
2024/01/10 10:03:56;;;;;;;9.57;6.68;;;-1.20;99.90;;;;;;5012137;28;20506;-82
2024/01/10 10:06:21;;;;;;;16.60;8.00;;;-1.20;99.90;;;;;;5031198;28;20025;-82
2024/01/10 10:08:47;;;;;;;13.88;6.97;;;-1.10;99.90;;;;;;5031525;28;20052;-81
2024/01/10 10:11:14;;;;;;;17.92;8.13;;;-1.10;99.90;;;;;;5030004;28;20475;-81
2024/01/10 10:13:41;;;;;;;14.32;7.95;;;-1.00;99.90;;;;;;5024975;28;20030;-82
2024/01/10 10:16:09;;;;;;;12.15;6.90;;;-1.00;99.90;;;;;;5030175;28;20100;-82
2024/01/10 10:18:35;;;;;;;13.38;5.78;;;-1.00;99.90;;;;;;5022396;28;20035;-81
2024/01/10 10:21:11;;;;;;;6.75;4.80;;;-0.90;99.90;;;;;;5026272;28;20026;-81
2024/01/10 10:23:41;;;;;;;8.65;5.57;;;-0.90;99.90;;;;;;5029661;28;20041;-81
2024/01/10 10:26:13;;;;;;;7.72;5.00;;;-0.90;99.90;;;;;;5030814;28;20104;-82
2024/01/10 10:28:41;;;;;;;12.93;5.72;;;-0.80;99.90;;;;;;5030901;28;20037;-82
2024/01/10 10:31:07;;;;;;;7.88;5.38;;;-0.80;99.90;;;;;;5030214;28;20454;-80
2024/01/10 10:33:33;;;;;;;6.65;4.70;;;-0.70;99.90;;;;;;5028132;28;20037;-81
2024/01/10 10:35:59;;;;;;;8.70;5.07;;;-0.70;99.70;;;;;;5029961;28;20031;-82
2024/01/10 10:38:24;;;;;;;8.15;4.95;;;-0.70;99.00;;;;;;5030721;28;20022;-81
2024/01/10 10:40:51;;;;;;;9.20;4.78;;;-0.60;98.90;;;;;;5031668;28;20032;-81
2024/01/10 10:43:21;;;;;;;10.88;5.00;;;-0.70;99.00;;;;;;5030744;28;20064;-81
2024/01/10 10:45:48;;;;;;;10.82;5.40;;;-0.60;98.80;;;;;;5029901;28;20646;-83
2024/01/10 10:48:18;;;;;;;11.15;5.68;;;-0.60;98.80;;;;;;5030665;28;20033;-84
2024/01/10 10:51:03;;;;;;;11.43;5.45;;;-0.60;99.00;;;;;;5030111;28;20057;-83
2024/01/10 10:53:30;;;;;;;10.90;5.50;;;-0.60;99.10;;;;;;5026639;28;20068;-81
2024/01/10 10:55:58;;;;;;;9.50;5.78;;;-0.60;99.30;;;;;;5025744;28;20036;-82
2024/01/10 10:58:24;;;;;;;10.85;6.18;;;-0.50;99.20;;;;;;5030421;28;20481;-83
2024/01/10 11:00:50;;;;;;;11.27;6.40;;;-0.40;98.80;;;;;;5030393;28;20021;-83
2024/01/10 11:03:17;;;;;;;15.05;6.93;;;-0.40;98.50;;;;;;5031111;28;20017;-83
2024/01/10 11:05:44;;;;;;;13.48;5.97;;;-0.30;98.50;;;;;;5030903;28;20029;-84
2024/01/10 11:08:14;;;;;;;10.85;5.82;;;-0.40;98.50;;;;;;5030498;28;20037;-82
2024/01/10 11:10:42;;;;;;;9.18;4.30;;;-0.30;98.20;;;;;;5030594;28;20071;-85
2024/01/10 11:13:34;;;;;;;9.73;5.30;;;-0.20;98.00;;;;;;5026573;28;20094;-84
2024/01/10 11:16:21;;;;;;;9.35;5.82;;;-0.20;98.10;;;;;;5029604;28;20022;-84
2024/01/10 11:19:43;;;;;;;6.95;4.88;;;-0.10;97.90;;;;;;5030155;28;20029;-84
2024/01/10 11:22:18;;;;;;;11.35;6.65;;;-0.10;97.70;;;;;;4968234;28;20023;-84
2024/01/10 11:24:44;;;;;;;11.63;5.97;;;0.00;97.80;;;;;;4969086;28;20062;-83
2024/01/10 11:27:14;;;;;;;12.30;7.32;;;0.00;97.90;;;;;;4998750;28;20037;-83
2024/01/10 11:29:41;;;;;;;8.75;6.35;;;0.00;97.70;;;;;;5030076;28;20045;-83
2024/01/10 11:32:09;;;;;;;10.05;5.60;;;0.00;97.60;;;;;;5030276;28;20064;-84
2024/01/10 11:34:35;;;;;;;10.27;6.07;;;0.10;97.40;;;;;;5029064;28;20116;-82
2024/01/10 11:37:13;;;;;;;9.27;5.82;;;0.20;97.20;;;;;;5027698;28;20112;-83
2024/01/10 11:39:45;;;;;;;10.65;5.80;;;0.20;97.00;;;;;;5029052;28;20436;-83
2024/01/10 11:42:11;;;;;;;9.55;5.53;;;0.20;97.00;;;;;;5029476;28;20532;-82
2024/01/10 11:44:51;;;;;;;11.35;5.70;;;0.30;97.10;;;;;;5030181;28;20099;-81
2024/01/10 11:47:18;;;;;;;11.85;6.05;;;0.80;97.10;;;;;;5030869;28;20032;-80
2024/01/10 11:49:58;;;;;;;12.13;6.50;;;0.30;97.00;;;;;;5029662;28;20041;-83
2024/01/10 11:52:36;;;;;;;11.25;6.25;;;0.40;96.50;;;;;;5031702;28;20052;-83
2024/01/10 11:55:04;;;;;;;11.65;6.53;;;0.40;97.30;;;;;;5035098;28;20156;-83
2024/01/10 11:57:34;;;;;;;15.68;7.57;;;0.50;96.50;;;;;;5030932;28;20089;-82
2024/01/10 12:00:00;;;;;;;10.85;5.47;;;0.50;96.80;;;;;;5032038;28;20029;-83
2024/01/10 12:02:27;;;;;;;10.30;6.43;;;0.50;96.50;;;;;;5031852;28;20029;-82
2024/01/10 12:04:54;;;;;;;9.93;5.22;;;0.60;96.40;;;;;;5028650;28;20029;-82
2024/01/10 12:07:19;;;;;;;10.40;6.13;;;0.60;96.40;;;;;;5029477;28;20030;-84
2024/01/10 12:09:46;;;;;;;9.00;5.20;;;0.60;96.40;;;;;;5029612;28;20095;-82
2024/01/10 12:12:15;;;;;;;9.95;6.43;;;0.70;96.40;;;;;;5030094;28;20454;-85
2024/01/10 12:14:43;;;;;;;14.15;6.97;;;0.80;96.10;;;;;;5029112;28;20030;-83
2024/01/10 12:17:08;;;;;;;9.55;6.20;;;0.90;95.80;;;;;;5029091;28;20489;-84
2024/01/10 12:19:36;;;;;;;13.38;6.85;;;0.90;95.90;;;;;;5026130;28;20021;-84
2024/01/10 12:22:03;;;;;;;9.57;6.03;;;0.90;96.00;;;;;;5029671;28;20132;-82
2024/01/10 12:24:30;;;;;;;11.20;6.28;;;0.90;96.00;;;;;;5029977;28;20025;-83
2024/01/10 12:26:56;;;;;;;9.10;5.45;;;0.90;95.90;;;;;;5029626;28;20524;-83
2024/01/10 12:29:22;;;;;;;11.70;6.25;;;1.00;95.80;;;;;;5030122;28;20116;-83
2024/01/10 12:31:48;;;;;;;9.57;5.20;;;1.10;95.80;;;;;;5031962;28;20037;-83
2024/01/10 12:34:14;;;;;;;15.90;6.80;;;1.10;95.70;;;;;;5032642;28;20041;-82
2024/01/10 12:36:43;;;;;;;12.23;5.72;;;1.10;95.70;;;;;;5030004;28;20517;-83
2024/01/10 12:39:10;;;;;;;9.43;5.68;;;1.20;95.50;;;;;;5025355;28;20463;-82
2024/01/10 12:41:36;;;;;;;9.93;5.32;;;1.20;95.20;;;;;;5029273;28;20036;-86
2024/01/10 12:44:03;;;;;;;8.27;5.93;;;1.30;95.50;;;;;;5029102;28;20029;-87